sensor_id;sensor_type;location;lat;lon;timestamp;P1;durP1;ratioP1;P2;durP2;ratioP2
64500;SDS011;50874;24.150;-110.320;2023-06-19T00:00:12;12.55;;;2.95;;
64500;SDS011;50874;24.150;-110.320;2023-06-19T00:02:41;15.77;;;3.88;;
64500;SDS011;50874;24.150;-110.320;2023-06-19T00:05:09;12.20;;;3.58;;
64500;SDS011;50874;24.150;-110.320;2023-06-19T00:07:38;11.15;;;3.20;;
64500;SDS011;50874;24.150;-110.320;2023-06-19T00:10:05;12.88;;;3.45;;
64500;SDS011;50874;24.150;-110.320;2023-06-19T00:12:32;15.65;;;3.45;;
64500;SDS011;50874;24.150;-110.320;2023-06-19T00:14:59;16.27;;;3.28;;
64500;SDS011;50874;24.150;-110.320;2023-06-19T00:17:26;12.35;;;3.08;;
64500;SDS011;50874;24.150;-110.320;2023-06-19T00:19:53;14.55;;;3.95;;
64500;SDS011;50874;24.150;-110.320;2023-06-19T00:22:19;9.48;;;3.13;;
64500;SDS011;50874;24.150;-110.320;2023-06-19T00:24:46;16.58;;;3.75;;
64500;SDS011;50874;24.150;-110.320;2023-06-19T00:27:13;12.80;;;2.70;;
64500;SDS011;50874;24.150;-110.320;2023-06-19T00:29:39;11.48;;;2.92;;
64500;SDS011;50874;24.150;-110.320;2023-06-19T00:32:06;13.48;;;3.08;;
64500;SDS011;50874;24.150;-110.320;2023-06-19T00:34:32;12.63;;;3.78;;
64500;SDS011;50874;24.150;-110.320;2023-06-19T00:36:59;13.30;;;3.25;;
64500;SDS011;50874;24.150;-110.320;2023-06-19T00:39:25;10.43;;;2.83;;
64500;SDS011;50874;24.150;-110.320;2023-06-19T00:41:53;9.30;;;2.78;;
64500;SDS011;50874;24.150;-110.320;2023-06-19T00:44:22;9.48;;;2.78;;
64500;SDS011;50874;24.150;-110.320;2023-06-19T00:46:53;21.73;;;3.83;;
64500;SDS011;50874;24.150;-110.320;2023-06-19T00:49:25;9.95;;;3.17;;
64500;SDS011;50874;24.150;-110.320;2023-06-19T00:51:53;9.95;;;2.65;;
64500;SDS011;50874;24.150;-110.320;2023-06-19T00:54:19;15.13;;;2.72;;
64500;SDS011;50874;24.150;-110.320;2023-06-19T00:56:46;13.93;;;2.75;;
64500;SDS011;50874;24.150;-110.320;2023-06-19T00:59:17;10.52;;;2.63;;
64500;SDS011;50874;24.150;-110.320;2023-06-19T01:01:45;10.63;;;2.95;;
64500;SDS011;50874;24.150;-110.320;2023-06-19T01:04:12;15.95;;;2.92;;
64500;SDS011;50874;24.150;-110.320;2023-06-19T01:06:55;10.10;;;3.40;;
64500;SDS011;50874;24.150;-110.320;2023-06-19T01:09:36;13.98;;;3.33;;
64500;SDS011;50874;24.150;-110.320;2023-06-19T01:12:19;15.18;;;2.83;;
64500;SDS011;50874;24.150;-110.320;2023-06-19T01:14:58;18.48;;;3.30;;
64500;SDS011;50874;24.150;-110.320;2023-06-19T01:17:30;12.15;;;2.97;;
64500;SDS011;50874;24.150;-110.320;2023-06-19T01:19:57;9.55;;;2.95;;
64500;SDS011;50874;24.150;-110.320;2023-06-19T01:22:26;18.38;;;3.65;;
64500;SDS011;50874;24.150;-110.320;2023-06-19T01:24:56;15.60;;;2.90;;
64500;SDS011;50874;24.150;-110.320;2023-06-19T01:27:23;16.02;;;3.05;;
64500;SDS011;50874;24.150;-110.320;2023-06-19T01:29:51;14.32;;;3.13;;
64500;SDS011;50874;24.150;-110.320;2023-06-19T01:32:22;11.77;;;3.10;;
64500;SDS011;50874;24.150;-110.320;2023-06-19T01:35:12;17.33;;;3.55;;
64500;SDS011;50874;24.150;-110.320;2023-06-19T01:37:40;10.90;;;2.90;;
64500;SDS011;50874;24.150;-110.320;2023-06-19T01:40:08;14.35;;;3.30;;
64500;SDS011;50874;24.150;-110.320;2023-06-19T01:42:35;8.65;;;2.88;;
64500;SDS011;50874;24.150;-110.320;2023-06-19T01:45:04;12.50;;;2.78;;
64500;SDS011;50874;24.150;-110.320;2023-06-19T01:47:32;20.05;;;3.45;;
64500;SDS011;50874;24.150;-110.320;2023-06-19T01:49:59;8.15;;;2.72;;
64500;SDS011;50874;24.150;-110.320;2023-06-19T01:52:25;9.65;;;2.95;;
64500;SDS011;50874;24.150;-110.320;2023-06-19T01:54:52;9.02;;;3.30;;
64500;SDS011;50874;24.150;-110.320;2023-06-19T01:57:18;9.38;;;2.60;;
64500;SDS011;50874;24.150;-110.320;2023-06-19T01:59:45;16.65;;;3.58;;
64500;SDS011;50874;24.150;-110.320;2023-06-19T02:02:11;16.23;;;3.13;;
64500;SDS011;50874;24.150;-110.320;2023-06-19T02:04:38;13.27;;;2.60;;
64500;SDS011;50874;24.150;-110.320;2023-06-19T02:07:04;9.25;;;3.10;;
64500;SDS011;50874;24.150;-110.320;2023-06-19T02:09:31;10.98;;;2.95;;
64500;SDS011;50874;24.150;-110.320;2023-06-19T02:11:57;7.30;;;2.95;;
64500;SDS011;50874;24.150;-110.320;2023-06-19T02:14:24;10.43;;;2.78;;
64500;SDS011;50874;24.150;-110.320;2023-06-19T02:16:50;10.43;;;2.95;;
64500;SDS011;50874;24.150;-110.320;2023-06-19T02:19:16;13.02;;;2.97;;
64500;SDS011;50874;24.150;-110.320;2023-06-19T02:21:43;12.38;;;2.85;;
64500;SDS011;50874;24.150;-110.320;2023-06-19T02:24:09;12.98;;;4.05;;
64500;SDS011;50874;24.150;-110.320;2023-06-19T02:26:36;14.05;;;3.42;;
64500;SDS011;50874;24.150;-110.320;2023-06-19T02:29:02;9.02;;;3.03;;
64500;SDS011;50874;24.150;-110.320;2023-06-19T02:31:28;10.73;;;2.55;;
64500;SDS011;50874;24.150;-110.320;2023-06-19T02:33:55;9.02;;;2.55;;
64500;SDS011;50874;24.150;-110.320;2023-06-19T02:36:21;13.48;;;3.33;;
64500;SDS011;50874;24.150;-110.320;2023-06-19T02:38:48;17.83;;;4.07;;
64500;SDS011;50874;24.150;-110.320;2023-06-19T02:41:15;14.88;;;2.95;;
64500;SDS011;50874;24.150;-110.320;2023-06-19T02:43:42;13.02;;;3.20;;
64500;SDS011;50874;24.150;-110.320;2023-06-19T02:46:09;12.50;;;2.60;;
64500;SDS011;50874;24.150;-110.320;2023-06-19T02:48:36;8.50;;;2.95;;
64500;SDS011;50874;24.150;-110.320;2023-06-19T02:51:02;10.23;;;2.88;;
64500;SDS011;50874;24.150;-110.320;2023-06-19T02:53:29;11.35;;;2.85;;
64500;SDS011;50874;24.150;-110.320;2023-06-19T02:55:55;11.77;;;3.45;;
64500;SDS011;50874;24.150;-110.320;2023-06-19T02:58:22;9.18;;;2.65;;
64500;SDS011;50874;24.150;-110.320;2023-06-19T03:00:48;8.23;;;2.65;;
64500;SDS011;50874;24.150;-110.320;2023-06-19T03:03:15;12.18;;;2.72;;
64500;SDS011;50874;24.150;-110.320;2023-06-19T03:05:42;20.00;;;4.43;;
64500;SDS011;50874;24.150;-110.320;2023-06-19T03:08:08;9.35;;;2.95;;
64500;SDS011;50874;24.150;-110.320;2023-06-19T03:10:35;16.25;;;3.20;;
64500;SDS011;50874;24.150;-110.320;2023-06-19T03:13:02;14.98;;;3.40;;
64500;SDS011;50874;24.150;-110.320;2023-06-19T03:15:28;14.48;;;2.70;;
64500;SDS011;50874;24.150;-110.320;2023-06-19T03:17:55;10.38;;;2.80;;
64500;SDS011;50874;24.150;-110.320;2023-06-19T03:20:21;12.68;;;3.28;;
64500;SDS011;50874;24.150;-110.320;2023-06-19T03:22:48;14.88;;;3.83;;
64500;SDS011;50874;24.150;-110.320;2023-06-19T03:25:14;12.45;;;3.20;;
64500;SDS011;50874;24.150;-110.320;2023-06-19T03:27:41;13.35;;;3.50;;
64500;SDS011;50874;24.150;-110.320;2023-06-19T03:30:07;17.10;;;3.25;;
64500;SDS011;50874;24.150;-110.320;2023-06-19T03:32:38;11.00;;;2.40;;
64500;SDS011;50874;24.150;-110.320;2023-06-19T03:35:04;9.48;;;2.70;;
64500;SDS011;50874;24.150;-110.320;2023-06-19T03:37:31;11.95;;;2.83;;
64500;SDS011;50874;24.150;-110.320;2023-06-19T03:40:00;10.90;;;3.10;;
64500;SDS011;50874;24.150;-110.320;2023-06-19T03:42:28;12.02;;;2.63;;
64500;SDS011;50874;24.150;-110.320;2023-06-19T03:44:55;9.10;;;2.60;;
64500;SDS011;50874;24.150;-110.320;2023-06-19T03:47:21;17.85;;;3.55;;
64500;SDS011;50874;24.150;-110.320;2023-06-19T03:49:48;13.52;;;2.75;;
64500;SDS011;50874;24.150;-110.320;2023-06-19T03:52:14;11.55;;;3.03;;
64500;SDS011;50874;24.150;-110.320;2023-06-19T03:54:41;11.55;;;3.00;;
64500;SDS011;50874;24.150;-110.320;2023-06-19T03:57:07;8.52;;;2.78;;
64500;SDS011;50874;24.150;-110.320;2023-06-19T03:59:34;13.15;;;2.60;;
64500;SDS011;50874;24.150;-110.320;2023-06-19T04:02:00;7.05;;;2.70;;
64500;SDS011;50874;24.150;-110.320;2023-06-19T04:04:27;18.05;;;3.85;;
64500;SDS011;50874;24.150;-110.320;2023-06-19T04:06:53;10.60;;;3.67;;
64500;SDS011;50874;24.150;-110.320;2023-06-19T04:09:20;14.48;;;2.97;;
64500;SDS011;50874;24.150;-110.320;2023-06-19T04:11:46;18.10;;;3.47;;
64500;SDS011;50874;24.150;-110.320;2023-06-19T04:14:12;10.20;;;2.95;;
64500;SDS011;50874;24.150;-110.320;2023-06-19T04:16:39;11.63;;;3.40;;
64500;SDS011;50874;24.150;-110.320;2023-06-19T04:19:05;10.40;;;2.42;;
64500;SDS011;50874;24.150;-110.320;2023-06-19T04:21:32;9.48;;;3.47;;
64500;SDS011;50874;24.150;-110.320;2023-06-19T04:23:58;7.68;;;3.17;;
64500;SDS011;50874;24.150;-110.320;2023-06-19T04:26:25;14.50;;;3.67;;
64500;SDS011;50874;24.150;-110.320;2023-06-19T04:28:51;15.88;;;3.40;;
64500;SDS011;50874;24.150;-110.320;2023-06-19T04:31:17;13.38;;;3.22;;
64500;SDS011;50874;24.150;-110.320;2023-06-19T04:33:47;21.23;;;3.97;;
64500;SDS011;50874;24.150;-110.320;2023-06-19T04:36:14;10.68;;;3.63;;
64500;SDS011;50874;24.150;-110.320;2023-06-19T04:38:40;13.88;;;3.90;;
64500;SDS011;50874;24.150;-110.320;2023-06-19T04:41:07;29.80;;;4.15;;
64500;SDS011;50874;24.150;-110.320;2023-06-19T04:43:33;17.90;;;4.25;;
64500;SDS011;50874;24.150;-110.320;2023-06-19T04:46:00;9.52;;;2.97;;
64500;SDS011;50874;24.150;-110.320;2023-06-19T04:48:29;12.80;;;3.40;;
64500;SDS011;50874;24.150;-110.320;2023-06-19T04:50:56;22.67;;;4.05;;
64500;SDS011;50874;24.150;-110.320;2023-06-19T04:53:22;19.10;;;3.35;;
64500;SDS011;50874;24.150;-110.320;2023-06-19T04:55:49;15.50;;;3.35;;
64500;SDS011;50874;24.150;-110.320;2023-06-19T04:58:16;11.77;;;3.50;;
64500;SDS011;50874;24.150;-110.320;2023-06-19T05:00:43;15.65;;;3.40;;
64500;SDS011;50874;24.150;-110.320;2023-06-19T05:03:09;15.52;;;3.60;;
64500;SDS011;50874;24.150;-110.320;2023-06-19T05:05:39;13.70;;;3.08;;
64500;SDS011;50874;24.150;-110.320;2023-06-19T05:08:05;9.02;;;2.70;;
64500;SDS011;50874;24.150;-110.320;2023-06-19T05:10:31;11.13;;;3.00;;
64500;SDS011;50874;24.150;-110.320;2023-06-19T05:12:58;20.48;;;3.25;;
64500;SDS011;50874;24.150;-110.320;2023-06-19T05:15:25;17.35;;;3.22;;
64500;SDS011;50874;24.150;-110.320;2023-06-19T05:17:52;12.70;;;3.17;;
64500;SDS011;50874;24.150;-110.320;2023-06-19T05:20:18;16.88;;;4.88;;
64500;SDS011;50874;24.150;-110.320;2023-06-19T05:22:45;24.35;;;4.47;;
64500;SDS011;50874;24.150;-110.320;2023-06-19T05:25:12;15.43;;;4.38;;
64500;SDS011;50874;24.150;-110.320;2023-06-19T05:27:38;11.30;;;3.35;;
64500;SDS011;50874;24.150;-110.320;2023-06-19T05:30:05;22.27;;;3.60;;
64500;SDS011;50874;24.150;-110.320;2023-06-19T05:32:32;11.90;;;2.83;;
64500;SDS011;50874;24.150;-110.320;2023-06-19T05:34:58;11.02;;;3.30;;
64500;SDS011;50874;24.150;-110.320;2023-06-19T05:37:25;8.85;;;2.88;;
64500;SDS011;50874;24.150;-110.320;2023-06-19T05:39:52;16.95;;;3.00;;
64500;SDS011;50874;24.150;-110.320;2023-06-19T05:42:18;16.90;;;3.83;;
64500;SDS011;50874;24.150;-110.320;2023-06-19T05:44:45;8.45;;;2.75;;
64500;SDS011;50874;24.150;-110.320;2023-06-19T05:47:11;14.00;;;3.60;;
64500;SDS011;50874;24.150;-110.320;2023-06-19T05:49:38;16.40;;;2.78;;
64500;SDS011;50874;24.150;-110.320;2023-06-19T05:52:06;13.43;;;3.50;;
64500;SDS011;50874;24.150;-110.320;2023-06-19T05:54:33;16.50;;;4.03;;
64500;SDS011;50874;24.150;-110.320;2023-06-19T05:56:59;23.67;;;3.40;;
64500;SDS011;50874;24.150;-110.320;2023-06-19T05:59:26;15.45;;;3.20;;
64500;SDS011;50874;24.150;-110.320;2023-06-19T06:01:52;19.00;;;4.50;;
64500;SDS011;50874;24.150;-110.320;2023-06-19T06:04:20;12.05;;;3.00;;
64500;SDS011;50874;24.150;-110.320;2023-06-19T06:06:47;11.45;;;3.60;;
64500;SDS011;50874;24.150;-110.320;2023-06-19T06:09:14;14.68;;;4.03;;
64500;SDS011;50874;24.150;-110.320;2023-06-19T06:11:41;15.90;;;3.30;;
64500;SDS011;50874;24.150;-110.320;2023-06-19T06:14:07;11.80;;;3.38;;
64500;SDS011;50874;24.150;-110.320;2023-06-19T06:16:34;12.40;;;3.00;;
64500;SDS011;50874;24.150;-110.320;2023-06-19T06:19:00;19.35;;;3.88;;
64500;SDS011;50874;24.150;-110.320;2023-06-19T06:21:27;20.50;;;5.45;;
64500;SDS011;50874;24.150;-110.320;2023-06-19T06:23:53;16.20;;;3.28;;
64500;SDS011;50874;24.150;-110.320;2023-06-19T06:26:20;11.80;;;3.70;;
64500;SDS011;50874;24.150;-110.320;2023-06-19T06:28:47;19.75;;;3.13;;
64500;SDS011;50874;24.150;-110.320;2023-06-19T06:31:13;15.00;;;3.30;;
64500;SDS011;50874;24.150;-110.320;2023-06-19T06:33:40;13.75;;;3.60;;
64500;SDS011;50874;24.150;-110.320;2023-06-19T06:36:06;15.27;;;4.03;;
64500;SDS011;50874;24.150;-110.320;2023-06-19T06:38:33;19.77;;;3.65;;
64500;SDS011;50874;24.150;-110.320;2023-06-19T06:40:59;24.23;;;4.50;;
64500;SDS011;50874;24.150;-110.320;2023-06-19T06:43:25;12.98;;;3.38;;
64500;SDS011;50874;24.150;-110.320;2023-06-19T06:45:52;15.70;;;3.15;;
64500;SDS011;50874;24.150;-110.320;2023-06-19T06:48:18;13.73;;;3.38;;
64500;SDS011;50874;24.150;-110.320;2023-06-19T06:50:46;16.10;;;3.67;;
64500;SDS011;50874;24.150;-110.320;2023-06-19T06:53:12;10.18;;;2.97;;
64500;SDS011;50874;24.150;-110.320;2023-06-19T06:55:38;10.30;;;2.97;;
64500;SDS011;50874;24.150;-110.320;2023-06-19T06:58:05;21.63;;;3.53;;
64500;SDS011;50874;24.150;-110.320;2023-06-19T07:00:31;15.75;;;3.20;;
64500;SDS011;50874;24.150;-110.320;2023-06-19T07:02:58;16.50;;;3.25;;
64500;SDS011;50874;24.150;-110.320;2023-06-19T07:05:24;15.27;;;3.38;;
64500;SDS011;50874;24.150;-110.320;2023-06-19T07:07:51;7.85;;;3.13;;
64500;SDS011;50874;24.150;-110.320;2023-06-19T07:10:18;19.40;;;3.78;;
64500;SDS011;50874;24.150;-110.320;2023-06-19T07:12:45;16.23;;;2.78;;
64500;SDS011;50874;24.150;-110.320;2023-06-19T07:15:12;12.70;;;3.53;;
64500;SDS011;50874;24.150;-110.320;2023-06-19T07:17:39;13.07;;;2.60;;
64500;SDS011;50874;24.150;-110.320;2023-06-19T07:20:05;26.80;;;4.00;;
64500;SDS011;50874;24.150;-110.320;2023-06-19T07:22:32;10.95;;;2.67;;
64500;SDS011;50874;24.150;-110.320;2023-06-19T07:24:59;8.45;;;2.72;;
64500;SDS011;50874;24.150;-110.320;2023-06-19T07:27:25;12.40;;;2.65;;
64500;SDS011;50874;24.150;-110.320;2023-06-19T07:29:53;11.68;;;3.17;;
64500;SDS011;50874;24.150;-110.320;2023-06-19T07:32:19;8.95;;;2.45;;
64500;SDS011;50874;24.150;-110.320;2023-06-19T07:34:46;12.20;;;2.25;;
64500;SDS011;50874;24.150;-110.320;2023-06-19T07:37:12;10.30;;;2.45;;
64500;SDS011;50874;24.150;-110.320;2023-06-19T07:39:48;14.90;;;2.42;;
64500;SDS011;50874;24.150;-110.320;2023-06-19T07:42:16;9.15;;;2.38;;
64500;SDS011;50874;24.150;-110.320;2023-06-19T07:44:44;7.50;;;2.03;;
64500;SDS011;50874;24.150;-110.320;2023-06-19T07:47:11;9.73;;;2.05;;
64500;SDS011;50874;24.150;-110.320;2023-06-19T07:49:38;5.20;;;1.90;;
64500;SDS011;50874;24.150;-110.320;2023-06-19T07:52:05;5.78;;;1.67;;
64500;SDS011;50874;24.150;-110.320;2023-06-19T07:54:34;9.10;;;2.13;;
64500;SDS011;50874;24.150;-110.320;2023-06-19T07:57:01;4.90;;;1.83;;
64500;SDS011;50874;24.150;-110.320;2023-06-19T07:59:28;7.28;;;2.08;;
64500;SDS011;50874;24.150;-110.320;2023-06-19T08:01:54;9.85;;;2.20;;
64500;SDS011;50874;24.150;-110.320;2023-06-19T08:04:20;8.20;;;1.60;;
64500;SDS011;50874;24.150;-110.320;2023-06-19T08:06:47;7.28;;;1.83;;
64500;SDS011;50874;24.150;-110.320;2023-06-19T08:09:13;9.20;;;2.30;;
64500;SDS011;50874;24.150;-110.320;2023-06-19T08:11:40;9.15;;;1.92;;
64500;SDS011;50874;24.150;-110.320;2023-06-19T08:14:06;12.40;;;2.47;;
64500;SDS011;50874;24.150;-110.320;2023-06-19T08:16:33;8.40;;;2.08;;
64500;SDS011;50874;24.150;-110.320;2023-06-19T08:18:59;7.30;;;2.10;;
64500;SDS011;50874;24.150;-110.320;2023-06-19T08:21:25;5.80;;;2.13;;
64500;SDS011;50874;24.150;-110.320;2023-06-19T08:23:52;7.03;;;2.00;;
64500;SDS011;50874;24.150;-110.320;2023-06-19T08:26:18;9.35;;;2.20;;
64500;SDS011;50874;24.150;-110.320;2023-06-19T08:28:45;6.45;;;2.00;;
64500;SDS011;50874;24.150;-110.320;2023-06-19T08:31:11;4.68;;;2.08;;
64500;SDS011;50874;24.150;-110.320;2023-06-19T08:33:38;4.88;;;2.00;;
64500;SDS011;50874;24.150;-110.320;2023-06-19T08:36:04;6.95;;;2.00;;
64500;SDS011;50874;24.150;-110.320;2023-06-19T08:38:31;6.65;;;1.48;;
64500;SDS011;50874;24.150;-110.320;2023-06-19T08:40:57;6.57;;;1.80;;
64500;SDS011;50874;24.150;-110.320;2023-06-19T08:43:24;7.75;;;1.70;;
64500;SDS011;50874;24.150;-110.320;2023-06-19T08:46:02;10.25;;;2.08;;
64500;SDS011;50874;24.150;-110.320;2023-06-19T08:48:40;2.90;;;1.63;;
64500;SDS011;50874;24.150;-110.320;2023-06-19T08:51:06;5.35;;;1.63;;
64500;SDS011;50874;24.150;-110.320;2023-06-19T08:53:35;4.63;;;1.90;;
64500;SDS011;50874;24.150;-110.320;2023-06-19T08:56:09;7.07;;;2.10;;
64500;SDS011;50874;24.150;-110.320;2023-06-19T08:58:35;11.57;;;1.85;;
64500;SDS011;50874;24.150;-110.320;2023-06-19T09:01:02;5.07;;;1.95;;
64500;SDS011;50874;24.150;-110.320;2023-06-19T09:03:29;6.00;;;1.90;;
64500;SDS011;50874;24.150;-110.320;2023-06-19T09:05:55;6.53;;;2.00;;
64500;SDS011;50874;24.150;-110.320;2023-06-19T09:08:24;6.10;;;1.70;;
64500;SDS011;50874;24.150;-110.320;2023-06-19T09:13:27;7.03;;;1.90;;
64500;SDS011;50874;24.150;-110.320;2023-06-19T09:16:00;3.90;;;1.55;;
64500;SDS011;50874;24.150;-110.320;2023-06-19T09:18:43;2.15;;;1.42;;
64500;SDS011;50874;24.150;-110.320;2023-06-19T09:21:19;6.13;;;2.05;;
64500;SDS011;50874;24.150;-110.320;2023-06-19T09:23:50;8.88;;;2.17;;
64500;SDS011;50874;24.150;-110.320;2023-06-19T09:26:17;6.95;;;1.50;;
64500;SDS011;50874;24.150;-110.320;2023-06-19T09:28:45;4.55;;;1.50;;
64500;SDS011;50874;24.150;-110.320;2023-06-19T09:31:12;5.55;;;1.80;;
64500;SDS011;50874;24.150;-110.320;2023-06-19T09:33:39;4.35;;;1.70;;
64500;SDS011;50874;24.150;-110.320;2023-06-19T09:36:06;5.53;;;2.55;;
64500;SDS011;50874;24.150;-110.320;2023-06-19T09:38:33;1.88;;;1.35;;
64500;SDS011;50874;24.150;-110.320;2023-06-19T09:41:05;3.95;;;1.60;;
64500;SDS011;50874;24.150;-110.320;2023-06-19T09:46:02;6.00;;;1.73;;
64500;SDS011;50874;24.150;-110.320;2023-06-19T09:48:30;4.97;;;1.70;;
64500;SDS011;50874;24.150;-110.320;2023-06-19T09:51:01;7.88;;;1.48;;
64500;SDS011;50874;24.150;-110.320;2023-06-19T09:53:36;3.45;;;1.52;;
64500;SDS011;50874;24.150;-110.320;2023-06-19T09:56:03;2.78;;;1.52;;
64500;SDS011;50874;24.150;-110.320;2023-06-19T09:58:29;4.65;;;1.38;;
64500;SDS011;50874;24.150;-110.320;2023-06-19T10:00:57;5.18;;;1.90;;
64500;SDS011;50874;24.150;-110.320;2023-06-19T10:03:32;4.90;;;1.98;;
64500;SDS011;50874;24.150;-110.320;2023-06-19T10:06:02;4.35;;;1.38;;
64500;SDS011;50874;24.150;-110.320;2023-06-19T10:08:31;3.22;;;1.52;;
64500;SDS011;50874;24.150;-110.320;2023-06-19T10:11:06;4.47;;;1.40;;
64500;SDS011;50874;24.150;-110.320;2023-06-19T10:13:33;7.80;;;1.45;;
64500;SDS011;50874;24.150;-110.320;2023-06-19T10:16:01;5.70;;;1.50;;
64500;SDS011;50874;24.150;-110.320;2023-06-19T10:18:28;5.20;;;1.73;;
64500;SDS011;50874;24.150;-110.320;2023-06-19T10:20:57;5.60;;;1.35;;
64500;SDS011;50874;24.150;-110.320;2023-06-19T10:23:24;6.78;;;1.65;;
64500;SDS011;50874;24.150;-110.320;2023-06-19T10:28:26;6.88;;;1.40;;
64500;SDS011;50874;24.150;-110.320;2023-06-19T10:30:56;6.00;;;1.50;;
64500;SDS011;50874;24.150;-110.320;2023-06-19T10:33:32;6.82;;;1.40;;
64500;SDS011;50874;24.150;-110.320;2023-06-19T10:36:15;3.72;;;1.50;;
64500;SDS011;50874;24.150;-110.320;2023-06-19T10:38:42;4.90;;;1.77;;
64500;SDS011;50874;24.150;-110.320;2023-06-19T10:41:15;7.35;;;1.65;;
64500;SDS011;50874;24.150;-110.320;2023-06-19T10:43:52;4.97;;;1.20;;
64500;SDS011;50874;24.150;-110.320;2023-06-19T10:46:22;5.70;;;1.58;;
64500;SDS011;50874;24.150;-110.320;2023-06-19T10:48:50;9.82;;;2.15;;
64500;SDS011;50874;24.150;-110.320;2023-06-19T10:51:19;9.32;;;1.95;;
64500;SDS011;50874;24.150;-110.320;2023-06-19T10:53:46;6.88;;;2.00;;
64500;SDS011;50874;24.150;-110.320;2023-06-19T10:56:13;5.40;;;1.50;;
64500;SDS011;50874;24.150;-110.320;2023-06-19T10:58:39;3.22;;;1.45;;
64500;SDS011;50874;24.150;-110.320;2023-06-19T11:01:06;3.67;;;1.48;;
64500;SDS011;50874;24.150;-110.320;2023-06-19T11:03:32;2.97;;;1.30;;
64500;SDS011;50874;24.150;-110.320;2023-06-19T11:05:59;4.10;;;1.35;;
64500;SDS011;50874;24.150;-110.320;2023-06-19T11:08:26;8.68;;;1.40;;
64500;SDS011;50874;24.150;-110.320;2023-06-19T11:10:52;3.95;;;1.20;;
64500;SDS011;50874;24.150;-110.320;2023-06-19T11:13:20;3.63;;;1.52;;
64500;SDS011;50874;24.150;-110.320;2023-06-19T11:15:48;4.68;;;1.45;;
64500;SDS011;50874;24.150;-110.320;2023-06-19T11:18:15;8.90;;;1.23;;
64500;SDS011;50874;24.150;-110.320;2023-06-19T11:20:43;3.45;;;1.20;;
64500;SDS011;50874;24.150;-110.320;2023-06-19T11:23:15;7.03;;;1.83;;
64500;SDS011;50874;24.150;-110.320;2023-06-19T11:25:52;6.75;;;1.88;;
64500;SDS011;50874;24.150;-110.320;2023-06-19T11:28:18;16.77;;;2.70;;
64500;SDS011;50874;24.150;-110.320;2023-06-19T11:30:48;4.85;;;1.70;;
64500;SDS011;50874;24.150;-110.320;2023-06-19T11:33:22;5.47;;;2.08;;
64500;SDS011;50874;24.150;-110.320;2023-06-19T11:35:49;4.70;;;1.50;;
64500;SDS011;50874;24.150;-110.320;2023-06-19T11:38:20;4.00;;;1.73;;
64500;SDS011;50874;24.150;-110.320;2023-06-19T11:40:50;4.85;;;1.55;;
64500;SDS011;50874;24.150;-110.320;2023-06-19T11:43:29;3.60;;;1.38;;
64500;SDS011;50874;24.150;-110.320;2023-06-19T11:46:03;5.75;;;1.80;;
64500;SDS011;50874;24.150;-110.320;2023-06-19T11:48:31;3.20;;;1.52;;
64500;SDS011;50874;24.150;-110.320;2023-06-19T11:50:58;5.97;;;1.45;;
64500;SDS011;50874;24.150;-110.320;2023-06-19T11:53:25;6.88;;;1.73;;
64500;SDS011;50874;24.150;-110.320;2023-06-19T11:55:51;5.18;;;1.85;;
64500;SDS011;50874;24.150;-110.320;2023-06-19T11:58:18;10.93;;;2.20;;
64500;SDS011;50874;24.150;-110.320;2023-06-19T12:00:47;10.88;;;2.22;;
64500;SDS011;50874;24.150;-110.320;2023-06-19T12:03:14;16.83;;;2.38;;
64500;SDS011;50874;24.150;-110.320;2023-06-19T12:05:41;5.25;;;1.77;;
64500;SDS011;50874;24.150;-110.320;2023-06-19T12:08:07;5.50;;;1.50;;
64500;SDS011;50874;24.150;-110.320;2023-06-19T12:10:33;12.68;;;2.17;;
64500;SDS011;50874;24.150;-110.320;2023-06-19T12:13:00;9.20;;;2.30;;
64500;SDS011;50874;24.150;-110.320;2023-06-19T12:15:26;8.10;;;1.73;;
64500;SDS011;50874;24.150;-110.320;2023-06-19T12:17:53;7.07;;;1.85;;
64500;SDS011;50874;24.150;-110.320;2023-06-19T12:20:19;10.23;;;2.13;;
64500;SDS011;50874;24.150;-110.320;2023-06-19T12:22:46;6.40;;;1.60;;
64500;SDS011;50874;24.150;-110.320;2023-06-19T12:25:12;8.10;;;2.10;;
64500;SDS011;50874;24.150;-110.320;2023-06-19T12:27:39;9.05;;;1.65;;
64500;SDS011;50874;24.150;-110.320;2023-06-19T12:30:06;8.32;;;1.60;;
64500;SDS011;50874;24.150;-110.320;2023-06-19T12:32:33;7.25;;;1.98;;
64500;SDS011;50874;24.150;-110.320;2023-06-19T12:35:00;4.20;;;1.88;;
64500;SDS011;50874;24.150;-110.320;2023-06-19T12:37:26;4.13;;;1.60;;
64500;SDS011;50874;24.150;-110.320;2023-06-19T12:39:53;6.30;;;1.60;;
64500;SDS011;50874;24.150;-110.320;2023-06-19T12:42:19;8.45;;;1.88;;
64500;SDS011;50874;24.150;-110.320;2023-06-19T12:44:46;12.60;;;2.10;;
64500;SDS011;50874;24.150;-110.320;2023-06-19T12:47:12;7.75;;;1.80;;
64500;SDS011;50874;24.150;-110.320;2023-06-19T12:49:40;6.28;;;1.92;;
64500;SDS011;50874;24.150;-110.320;2023-06-19T12:52:06;15.75;;;2.50;;
64500;SDS011;50874;24.150;-110.320;2023-06-19T12:54:33;19.90;;;2.70;;
64500;SDS011;50874;24.150;-110.320;2023-06-19T12:57:00;12.63;;;2.08;;
64500;SDS011;50874;24.150;-110.320;2023-06-19T12:59:27;12.60;;;2.67;;
64500;SDS011;50874;24.150;-110.320;2023-06-19T13:01:54;13.60;;;2.33;;
64500;SDS011;50874;24.150;-110.320;2023-06-19T13:04:21;11.85;;;2.03;;
64500;SDS011;50874;24.150;-110.320;2023-06-19T13:06:47;19.25;;;2.17;;
64500;SDS011;50874;24.150;-110.320;2023-06-19T13:09:13;15.13;;;2.50;;
64500;SDS011;50874;24.150;-110.320;2023-06-19T13:11:40;8.38;;;2.20;;
64500;SDS011;50874;24.150;-110.320;2023-06-19T13:14:07;10.82;;;2.08;;
64500;SDS011;50874;24.150;-110.320;2023-06-19T13:16:33;6.50;;;1.75;;
64500;SDS011;50874;24.150;-110.320;2023-06-19T13:19:00;11.65;;;2.30;;
64500;SDS011;50874;24.150;-110.320;2023-06-19T13:21:26;18.35;;;2.55;;
64500;SDS011;50874;24.150;-110.320;2023-06-19T13:23:53;9.93;;;2.20;;
64500;SDS011;50874;24.150;-110.320;2023-06-19T13:26:19;10.32;;;2.53;;
64500;SDS011;50874;24.150;-110.320;2023-06-19T13:28:45;12.82;;;2.63;;
64500;SDS011;50874;24.150;-110.320;2023-06-19T13:31:12;18.90;;;3.08;;
64500;SDS011;50874;24.150;-110.320;2023-06-19T13:33:39;19.30;;;2.72;;
64500;SDS011;50874;24.150;-110.320;2023-06-19T13:36:05;16.67;;;1.92;;
64500;SDS011;50874;24.150;-110.320;2023-06-19T13:38:31;11.30;;;2.70;;
64500;SDS011;50874;24.150;-110.320;2023-06-19T13:40:58;13.02;;;2.72;;
64500;SDS011;50874;24.150;-110.320;2023-06-19T13:43:24;34.28;;;5.45;;
64500;SDS011;50874;24.150;-110.320;2023-06-19T13:45:51;19.05;;;2.72;;
64500;SDS011;50874;24.150;-110.320;2023-06-19T13:48:17;11.63;;;2.88;;
64500;SDS011;50874;24.150;-110.320;2023-06-19T13:50:44;13.38;;;2.40;;
64500;SDS011;50874;24.150;-110.320;2023-06-19T13:53:10;41.70;;;7.38;;
64500;SDS011;50874;24.150;-110.320;2023-06-19T13:55:37;45.67;;;4.70;;
64500;SDS011;50874;24.150;-110.320;2023-06-19T13:58:03;12.23;;;2.30;;
64500;SDS011;50874;24.150;-110.320;2023-06-19T14:00:30;24.75;;;3.72;;
64500;SDS011;50874;24.150;-110.320;2023-06-19T14:02:56;27.13;;;3.72;;
64500;SDS011;50874;24.150;-110.320;2023-06-19T14:05:23;34.30;;;4.18;;
64500;SDS011;50874;24.150;-110.320;2023-06-19T14:07:49;20.17;;;3.60;;
64500;SDS011;50874;24.150;-110.320;2023-06-19T14:10:17;15.85;;;3.03;;